createdAt,value
2023-03-28T00:01:01.762Z,58.49
2023-03-28T00:03:29.820Z,57.96
2023-03-28T00:06:02.908Z,58.39
2023-03-28T00:08:30.850Z,57.89
2023-03-28T00:11:20.195Z,57.52
2023-03-28T00:14:01.193Z,58.11
2023-03-28T00:16:33.496Z,57.71
2023-03-28T00:19:03.290Z,57.96
2023-03-28T00:21:33.940Z,57.65
2023-03-28T00:24:03.919Z,57.77
2023-03-28T00:26:36.066Z,57.90
2023-03-28T00:29:06.276Z,57.62
2023-03-28T00:31:35.347Z,58.09
2023-03-28T00:34:02.810Z,57.79
2023-03-28T00:36:32.882Z,57.69
2023-03-28T00:39:01.809Z,57.42
2023-03-28T00:41:31.475Z,57.17
2023-03-28T00:43:59.377Z,57.42
2023-03-28T00:46:31.107Z,57.58
2023-03-28T00:49:14.913Z,58.30
2023-03-28T00:51:47.598Z,58.41
2023-03-28T00:54:18.906Z,57.62
2023-03-28T00:56:49.649Z,57.40
2023-03-28T00:59:20.643Z,57.09
2023-03-28T01:01:50.191Z,57.38
2023-03-28T01:04:22.431Z,57.31
2023-03-28T01:06:57.133Z,57.42
2023-03-28T01:09:24.773Z,56.88
2023-03-28T01:11:56.744Z,57.13
2023-03-28T01:14:27.914Z,56.95
2023-03-28T01:16:57.763Z,57.33
2023-03-28T01:19:33.958Z,57.34
2023-03-28T01:22:21.997Z,57.23
2023-03-28T01:24:54.924Z,56.93
2023-03-28T01:27:52.293Z,57.47
2023-03-28T01:31:10.948Z,57.50
2023-03-28T01:34:45.383Z,57.13
2023-03-28T01:37:31.660Z,57.14
2023-03-28T01:40:24.034Z,57.42
2023-03-28T01:43:14.240Z,57.25
2023-03-28T01:45:41.785Z,56.89
2023-03-28T01:48:27.208Z,57.07
2023-03-28T01:51:10.863Z,56.88
2023-03-28T01:53:37.958Z,57.00
2023-03-28T01:56:20.942Z,56.88
2023-03-28T01:58:59.884Z,56.95
2023-03-28T02:02:07.761Z,56.54
2023-03-28T02:04:39.380Z,56.60
2023-03-28T02:07:08.977Z,56.70
2023-03-28T02:09:47.591Z,56.93
2023-03-28T02:12:43.577Z,57.03
2023-03-28T02:15:28.229Z,56.65
2023-03-28T02:18:23.740Z,56.73
2023-03-28T02:21:04.023Z,56.65
2023-03-28T02:23:39.636Z,56.53
2023-03-28T02:26:26.580Z,56.47
2023-03-28T02:29:17.637Z,56.58
2023-03-28T02:31:50.817Z,57.18
2023-03-28T02:34:18.480Z,56.55
2023-03-28T02:37:03.555Z,56.84
2023-03-28T02:40:05.831Z,56.79
2023-03-28T02:42:35.777Z,56.43
2023-03-28T02:45:20.737Z,56.67
2023-03-28T02:47:50.688Z,56.63
2023-03-28T02:50:34.835Z,57.13
2023-03-28T02:53:22.476Z,57.29
2023-03-28T02:55:55.167Z,57.07
2023-03-28T02:58:47.985Z,58.14
2023-03-28T03:01:15.085Z,58.00
2023-03-28T03:03:43.889Z,58.74
2023-03-28T03:06:12.665Z,59.44
2023-03-28T03:08:39.831Z,59.41
2023-03-28T03:11:06.980Z,59.92
2023-03-28T03:13:34.110Z,59.61
2023-03-28T03:16:04.022Z,60.25
2023-03-28T03:18:32.539Z,60.36
2023-03-28T03:21:01.869Z,60.48
2023-03-28T03:23:29.324Z,60.17
2023-03-28T03:25:58.916Z,60.47
2023-03-28T03:28:32.351Z,60.53
2023-03-28T03:31:02.286Z,60.61
2023-03-28T03:33:38.107Z,60.36
2023-03-28T03:36:06.759Z,60.98
2023-03-28T03:38:34.571Z,60.35
2023-03-28T03:41:02.185Z,60.19
2023-03-28T03:43:29.121Z,60.53
2023-03-28T03:45:56.531Z,60.29
2023-03-28T03:48:23.644Z,60.14
2023-03-28T03:50:56.612Z,61.12
2023-03-28T03:53:23.639Z,61.11
2023-03-28T03:56:02.971Z,61.41
2023-03-28T03:58:46.700Z,61.32
2023-03-28T04:01:16.613Z,61.05
2023-03-28T04:03:44.022Z,61.33
2023-03-28T04:06:15.694Z,61.23
2023-03-28T04:08:42.594Z,61.00
2023-03-28T04:11:10.757Z,61.50
2023-03-28T04:13:42.252Z,61.66
2023-03-28T04:16:09.918Z,61.69
2023-03-28T04:18:50.810Z,62.33
2023-03-28T04:21:28.339Z,61.97
2023-03-28T04:23:56.603Z,62.06
2023-03-28T04:26:50.306Z,61.82
2023-03-28T04:29:25.271Z,61.61
2023-03-28T04:32:13.034Z,61.28
2023-03-28T04:35:03.558Z,61.33
2023-03-28T04:37:31.232Z,61.26
2023-03-28T04:40:04.476Z,61.03
2023-03-28T04:42:50.082Z,60.67
2023-03-28T04:45:26.526Z,60.54
2023-03-28T04:47:55.348Z,60.25
2023-03-28T04:50:23.433Z,60.12
2023-03-28T04:52:50.526Z,60.22
2023-03-28T04:55:17.679Z,60.11
2023-03-28T04:57:47.041Z,60.09
2023-03-28T05:00:17.273Z,61.13
2023-03-28T05:02:57.530Z,62.08
2023-03-28T05:05:26.885Z,62.37
2023-03-28T05:07:55.101Z,62.66
2023-03-28T05:10:22.265Z,61.65
2023-03-28T05:12:51.035Z,62.64
2023-03-28T05:15:21.477Z,62.62
2023-03-28T05:18:09.199Z,61.75
2023-03-28T05:20:37.260Z,61.64
2023-03-28T05:23:06.244Z,61.77
2023-03-28T05:25:36.701Z,61.34
2023-03-28T05:28:04.702Z,61.08
2023-03-28T05:30:33.509Z,61.04
2023-03-28T05:33:01.710Z,60.92
2023-03-28T05:35:29.855Z,61.33
2023-03-28T05:37:57.611Z,60.45
2023-03-28T05:40:24.643Z,60.48
2023-03-28T05:42:51.553Z,60.31
2023-03-28T05:45:20.906Z,60.39
2023-03-28T05:48:08.855Z,60.75
2023-03-28T05:50:36.715Z,60.84
2023-03-28T05:53:06.616Z,60.63
2023-03-28T05:55:35.642Z,60.18
2023-03-28T05:58:04.901Z,59.80
2023-03-28T06:00:40.529Z,59.54
2023-03-28T06:03:08.143Z,59.53
2023-03-28T06:05:39.713Z,59.53
2023-03-28T06:08:16.912Z,59.51
2023-03-28T06:10:43.856Z,59.36
2023-03-28T06:13:31.684Z,59.47
2023-03-28T06:15:59.043Z,60.04
2023-03-28T06:18:32.024Z,59.76
2023-03-28T06:20:59.328Z,59.82
2023-03-28T06:23:26.335Z,59.69
2023-03-28T06:25:53.242Z,59.40
2023-03-28T06:28:21.330Z,59.51
2023-03-28T06:31:12.475Z,59.20
2023-03-28T06:33:41.564Z,58.91
2023-03-28T06:36:12.075Z,58.75
2023-03-28T06:38:39.348Z,58.55
2023-03-28T06:41:06.627Z,58.63
2023-03-28T06:43:35.715Z,58.31
2023-03-28T06:46:10.356Z,57.91
2023-03-28T06:48:44.484Z,57.91
2023-03-28T06:51:23.586Z,58.24
2023-03-28T06:53:50.885Z,57.49
2023-03-28T06:56:23.143Z,56.81
2023-03-28T06:58:50.318Z,57.11
2023-03-28T07:01:22.471Z,56.79
2023-03-28T07:04:03.142Z,56.67
2023-03-28T07:06:30.396Z,56.13
2023-03-28T07:08:58.557Z,55.85
2023-03-28T07:11:40.817Z,55.86
2023-03-28T07:14:07.949Z,55.61
2023-03-28T07:16:34.958Z,55.22
2023-03-28T07:19:03.229Z,54.54
2023-03-28T07:21:34.388Z,54.44
2023-03-28T07:24:03.590Z,54.14
2023-03-28T07:26:42.560Z,54.00
2023-03-28T07:29:09.564Z,53.75
2023-03-28T07:31:36.756Z,53.56
2023-03-28T07:34:03.879Z,53.70
2023-03-28T07:36:31.095Z,53.63
2023-03-28T07:39:08.363Z,53.76
2023-03-28T07:41:35.465Z,53.64
2023-03-28T07:44:02.349Z,53.74
2023-03-28T07:46:29.470Z,54.13
2023-03-28T07:48:56.956Z,53.94
2023-03-28T07:51:24.519Z,53.32
2023-03-28T07:53:51.905Z,53.83
2023-03-28T07:56:19.274Z,53.85
2023-03-28T07:58:58.625Z,53.88
2023-03-28T08:01:26.494Z,53.29
2023-03-28T08:04:01.125Z,53.35
2023-03-28T08:06:39.601Z,53.23
2023-03-28T08:09:11.288Z,52.90
2023-03-28T08:11:44.479Z,52.30
2023-03-28T08:14:14.712Z,52.21
2023-03-28T08:16:42.629Z,52.09
2023-03-28T08:19:12.069Z,50.03
2023-03-28T08:22:02.993Z,47.46
2023-03-28T08:24:36.558Z,46.75
2023-03-28T08:27:21.253Z,45.32
2023-03-28T08:29:51.799Z,44.57
2023-03-28T08:32:19.522Z,44.86
2023-03-28T08:34:47.292Z,43.32
2023-03-28T08:37:17.470Z,42.13
2023-03-28T08:39:47.443Z,40.84
2023-03-28T08:42:29.099Z,37.60
2023-03-28T08:45:08.870Z,35.82
2023-03-28T08:47:48.314Z,36.61
2023-03-28T08:50:21.127Z,35.50
2023-03-28T08:52:48.278Z,34.57
2023-03-28T08:55:40.869Z,31.26
2023-03-28T08:58:19.889Z,31.65
2023-03-28T09:00:48.950Z,31.86
2023-03-28T09:03:19.793Z,31.43
2023-03-28T09:06:03.789Z,32.59
2023-03-28T09:08:50.802Z,33.76
2023-03-28T09:11:55.013Z,35.64
2023-03-28T09:15:07.149Z,37.16
2023-03-28T09:17:58.362Z,38.78
2023-03-28T09:20:32.953Z,39.64
2023-03-28T09:23:57.943Z,40.89
2023-03-28T09:27:04.046Z,40.12
2023-03-28T09:29:50.768Z,40.29
2023-03-28T09:32:39.868Z,39.63
2023-03-28T09:35:21.210Z,39.37
2023-03-28T09:38:10.129Z,38.87
2023-03-28T09:40:47.092Z,38.78
2023-03-28T09:43:47.672Z,36.17
2023-03-28T09:46:48.796Z,36.74
2023-03-28T09:49:35.894Z,35.58
2023-03-28T09:52:19.961Z,34.89
2023-03-28T09:54:48.456Z,36.74
2023-03-28T09:57:15.847Z,35.92
2023-03-28T09:59:58.886Z,34.92
2023-03-28T10:02:34.849Z,33.32
2023-03-28T10:05:29.233Z,32.13
2023-03-28T10:08:05.931Z,31.23
2023-03-28T10:10:59.576Z,29.97
2023-03-28T10:13:26.866Z,31.35
2023-03-28T10:15:58.003Z,30.43
2023-03-28T10:18:45.212Z,30.88
2023-03-28T10:21:25.897Z,31.93
2023-03-28T10:24:09.396Z,31.02
2023-03-28T10:26:37.525Z,31.63
2023-03-28T10:29:08.689Z,31.73
2023-03-28T10:31:39.734Z,32.45
2023-03-28T10:34:29.807Z,31.66
2023-03-28T10:37:27.257Z,31.79
2023-03-28T10:40:20.461Z,33.58
2023-03-28T10:43:15.862Z,33.98
2023-03-28T10:46:27.325Z,37.15
2023-03-28T10:49:19.457Z,37.53
2023-03-28T10:52:14.045Z,38.42
2023-03-28T10:55:00.806Z,38.92
2023-03-28T10:58:06.045Z,39.71
2023-03-28T11:00:45.568Z,40.64
2023-03-28T11:03:29.275Z,41.65
2023-03-28T11:06:38.052Z,43.05
2023-03-28T11:09:21.236Z,42.12
2023-03-28T11:12:43.873Z,40.06
2023-03-28T11:15:31.434Z,37.88
2023-03-28T11:18:32.150Z,35.89
2023-03-28T11:21:23.210Z,35.51
2023-03-28T11:24:20.897Z,37.15
2023-03-28T11:27:16.282Z,36.54
2023-03-28T11:30:02.861Z,36.11
2023-03-28T11:33:10.891Z,36.69
2023-03-28T11:35:53.531Z,37.78
2023-03-28T11:38:29.815Z,38.67
2023-03-28T11:41:21.855Z,40.86
2023-03-28T11:44:14.027Z,42.40
2023-03-28T11:47:12.499Z,43.07
2023-03-28T11:49:48.721Z,44.90
2023-03-28T11:52:50.114Z,45.06
2023-03-28T11:55:27.894Z,45.29
2023-03-28T11:58:28.148Z,45.52
2023-03-28T12:01:01.555Z,44.98
2023-03-28T12:03:42.715Z,45.13
2023-03-28T12:06:22.365Z,44.91
2023-03-28T12:09:24.537Z,45.69
2023-03-28T12:12:18.625Z,45.78
2023-03-28T12:14:54.959Z,46.77
2023-03-28T12:17:59.627Z,47.49
2023-03-28T12:20:36.774Z,47.31
2023-03-28T12:23:24.154Z,47.04
2023-03-28T12:26:38.901Z,47.69
2023-03-28T12:29:16.244Z,47.93
2023-03-28T12:31:48.587Z,47.38
2023-03-28T12:34:41.814Z,47.82
2023-03-28T12:37:59.608Z,47.76
2023-03-28T12:40:48.817Z,47.55
2023-03-28T12:43:19.033Z,47.39
2023-03-28T12:45:53.862Z,47.69
2023-03-28T12:48:34.407Z,48.48
2023-03-28T12:51:17.969Z,48.69
2023-03-28T12:54:00.555Z,49.14
2023-03-28T12:56:28.048Z,48.95
2023-03-28T12:58:55.412Z,49.12
2023-03-28T13:01:47.843Z,49.76
2023-03-28T13:04:56.505Z,50.20
2023-03-28T13:07:28.352Z,50.27
2023-03-28T13:10:06.522Z,51.24
2023-03-28T13:12:39.365Z,49.96
2023-03-28T13:15:15.453Z,50.86
2023-03-28T13:17:47.559Z,50.52
2023-03-28T13:20:17.655Z,50.19
2023-03-28T13:22:50.422Z,50.30
2023-03-28T13:25:25.882Z,50.83
2023-03-28T13:28:01.000Z,50.69
2023-03-28T13:30:31.912Z,51.22
2023-03-28T13:33:08.020Z,50.59
2023-03-28T13:35:46.011Z,50.64
2023-03-28T13:38:29.200Z,50.57
2023-03-28T13:41:00.015Z,51.52
2023-03-28T13:43:51.201Z,52.02
2023-03-28T13:46:27.442Z,52.20
2023-03-28T13:49:11.201Z,52.23
2023-03-28T13:51:48.110Z,52.54
2023-03-28T13:54:15.803Z,51.79
2023-03-28T13:56:47.015Z,52.14
2023-03-28T13:59:32.083Z,52.30
2023-03-28T14:02:00.189Z,53.59
2023-03-28T14:04:33.048Z,53.74
2023-03-28T14:07:01.010Z,54.01
2023-03-28T14:09:27.904Z,54.02
2023-03-28T14:12:15.247Z,54.25
2023-03-28T14:14:46.178Z,53.82
2023-03-28T14:17:24.706Z,54.17
2023-03-28T14:19:56.891Z,54.36
2023-03-28T14:22:29.237Z,54.87
2023-03-28T14:25:06.828Z,55.08
2023-03-28T14:27:45.632Z,55.22
2023-03-28T14:30:26.405Z,54.94
2023-03-28T14:32:59.291Z,54.73
2023-03-28T14:35:30.466Z,54.62
2023-03-28T14:37:59.722Z,55.17
2023-03-28T14:40:35.240Z,55.65
2023-03-28T14:43:10.353Z,55.95
2023-03-28T14:45:41.230Z,56.43
2023-03-28T14:48:12.855Z,56.97
2023-03-28T14:50:40.970Z,56.61
2023-03-28T14:53:13.121Z,57.22
2023-03-28T14:55:42.202Z,56.73
2023-03-28T14:58:13.528Z,56.89
2023-03-28T15:00:47.049Z,57.49
2023-03-28T15:03:20.354Z,57.24
2023-03-28T15:05:54.686Z,57.43
2023-03-28T15:08:36.210Z,57.56
2023-03-28T15:11:12.832Z,57.23
2023-03-28T15:13:49.405Z,55.12
2023-03-28T15:16:20.894Z,54.17
2023-03-28T15:18:57.500Z,53.23
2023-03-28T15:21:25.059Z,53.04
2023-03-28T15:23:58.160Z,53.09
2023-03-28T15:26:29.347Z,53.61
2023-03-28T15:28:57.831Z,53.57
2023-03-28T15:31:26.995Z,52.91
2023-03-28T15:33:54.851Z,52.93
2023-03-28T15:36:30.505Z,55.34
2023-03-28T15:39:25.610Z,55.51
2023-03-28T15:42:18.111Z,54.89
2023-03-28T15:44:56.932Z,53.35
2023-03-28T15:47:27.221Z,54.81
2023-03-28T15:50:04.188Z,52.46
2023-03-28T15:52:31.948Z,52.24
2023-03-28T15:55:01.273Z,51.71
2023-03-28T15:57:30.357Z,50.32
2023-03-28T15:59:58.909Z,49.80
2023-03-28T16:02:26.240Z,49.21
2023-03-28T16:04:59.298Z,49.90
2023-03-28T16:07:27.191Z,49.63
2023-03-28T16:09:54.193Z,49.69
2023-03-28T16:12:21.232Z,49.21
2023-03-28T16:15:08.471Z,49.10
2023-03-28T16:17:45.383Z,49.19
2023-03-28T16:20:23.286Z,49.51
2023-03-28T16:22:51.294Z,49.43
2023-03-28T16:25:18.167Z,50.42
2023-03-28T16:27:45.104Z,50.54
2023-03-28T16:30:29.796Z,50.75
2023-03-28T16:32:56.904Z,50.33
2023-03-28T16:35:24.964Z,50.13
2023-03-28T16:37:52.564Z,48.94
2023-03-28T16:40:19.526Z,48.81
2023-03-28T16:42:46.518Z,50.01
2023-03-28T16:45:14.318Z,50.22
2023-03-28T16:47:42.167Z,50.20
2023-03-28T16:50:10.135Z,50.20
2023-03-28T16:52:40.488Z,49.92
2023-03-28T16:55:07.725Z,50.35
2023-03-28T16:57:34.639Z,49.74
2023-03-28T17:00:02.021Z,49.73
2023-03-28T17:02:29.094Z,49.99
2023-03-28T17:04:56.388Z,50.34
2023-03-28T17:07:23.466Z,50.78
2023-03-28T17:09:50.889Z,51.21
2023-03-28T17:12:18.445Z,51.64
2023-03-28T17:14:46.200Z,52.08
2023-03-28T17:17:13.462Z,52.25
2023-03-28T17:19:40.470Z,52.31
2023-03-28T17:22:07.652Z,53.13
2023-03-28T17:24:34.576Z,53.08
2023-03-28T17:27:01.459Z,53.38
2023-03-28T17:29:28.763Z,53.30
2023-03-28T17:31:56.212Z,53.45
2023-03-28T17:34:23.600Z,53.53
2023-03-28T17:36:51.656Z,52.83
2023-03-28T17:39:18.697Z,53.27
2023-03-28T17:41:45.631Z,53.47
2023-03-28T17:44:13.418Z,53.53
2023-03-28T17:46:40.359Z,53.53
2023-03-28T17:49:08.374Z,53.41
2023-03-28T17:51:35.379Z,53.13
2023-03-28T17:54:05.057Z,52.99
2023-03-28T17:56:32.309Z,53.62
2023-03-28T17:58:59.935Z,53.38
2023-03-28T18:01:26.899Z,53.66
2023-03-28T18:03:53.796Z,53.69
2023-03-28T18:06:47.302Z,53.64
2023-03-28T18:09:15.672Z,53.68
2023-03-28T18:11:43.006Z,54.08
2023-03-28T18:14:11.399Z,54.80
2023-03-28T18:16:40.196Z,55.15
2023-03-28T18:19:09.135Z,54.97
2023-03-28T18:21:37.221Z,55.26
2023-03-28T18:24:04.241Z,55.24
2023-03-28T18:26:31.686Z,55.49
2023-03-28T18:28:58.563Z,56.11
2023-03-28T18:31:28.131Z,56.32
2023-03-28T18:33:57.475Z,56.67
2023-03-28T18:36:24.818Z,56.62
2023-03-28T18:38:51.869Z,56.27
2023-03-28T18:41:18.740Z,56.75
2023-03-28T18:43:45.812Z,56.19
2023-03-28T18:46:16.317Z,56.47
2023-03-28T18:48:44.959Z,56.92
2023-03-28T18:51:12.360Z,56.47
2023-03-28T18:53:39.572Z,56.66
2023-03-28T18:56:08.476Z,56.50
2023-03-28T18:58:37.503Z,56.21
2023-03-28T19:01:06.010Z,56.56
2023-03-28T19:03:40.468Z,56.21
2023-03-28T19:06:08.422Z,56.16
2023-03-28T19:08:35.653Z,56.03
2023-03-28T19:11:08.450Z,55.93
2023-03-28T19:13:35.626Z,55.52
2023-03-28T19:16:07.013Z,55.61
2023-03-28T19:18:37.327Z,55.63
2023-03-28T19:21:04.646Z,55.87
2023-03-28T19:23:31.588Z,55.50
2023-03-28T19:25:58.749Z,55.55
2023-03-28T19:28:25.720Z,55.66
2023-03-28T19:31:01.294Z,55.37
2023-03-28T19:33:28.923Z,55.08
2023-03-28T19:35:56.801Z,54.83
2023-03-28T19:38:26.270Z,54.49
2023-03-28T19:41:00.521Z,54.27
2023-03-28T19:43:28.503Z,54.12
2023-03-28T19:46:02.644Z,54.14
2023-03-28T19:48:30.002Z,53.80
2023-03-28T19:50:56.915Z,53.34
2023-03-28T19:53:23.796Z,52.62
2023-03-28T19:55:54.996Z,52.69
2023-03-28T19:58:22.680Z,52.65
2023-03-28T20:00:50.003Z,52.79
2023-03-28T20:03:17.905Z,52.42
2023-03-28T20:05:46.739Z,52.29
2023-03-28T20:08:14.835Z,51.84
2023-03-28T20:10:43.358Z,52.25
2023-03-28T20:13:11.045Z,52.12
2023-03-28T20:15:41.326Z,51.89
2023-03-28T20:18:14.588Z,51.62
2023-03-28T20:20:42.776Z,51.63
2023-03-28T20:23:11.796Z,51.52
2023-03-28T20:25:38.786Z,51.39
2023-03-28T20:28:10.050Z,51.37
2023-03-28T20:30:37.967Z,51.39
2023-03-28T20:33:04.947Z,51.31
2023-03-28T20:35:32.102Z,50.94
2023-03-28T20:37:59.733Z,51.18
2023-03-28T20:40:27.192Z,51.09
2023-03-28T20:42:54.696Z,50.67
2023-03-28T20:45:24.933Z,50.35
2023-03-28T20:47:56.617Z,50.31
2023-03-28T20:50:26.015Z,50.23
2023-03-28T20:52:53.306Z,50.00
2023-03-28T20:55:20.643Z,50.11
2023-03-28T20:57:48.041Z,49.87
2023-03-28T21:00:17.564Z,49.77
2023-03-28T21:02:46.331Z,49.80
2023-03-28T21:05:14.467Z,50.15
2023-03-28T21:07:41.849Z,49.98
2023-03-28T21:10:10.291Z,50.15
2023-03-28T21:12:37.252Z,50.31
2023-03-28T21:15:04.645Z,50.33
2023-03-28T21:17:31.709Z,50.16
2023-03-28T21:19:59.371Z,50.18
2023-03-28T21:22:26.626Z,50.14
2023-03-28T21:24:53.576Z,50.46
2023-03-28T21:27:20.676Z,50.55
2023-03-28T21:29:47.716Z,50.65
2023-03-28T21:32:16.069Z,50.47
2023-03-28T21:34:44.889Z,50.67
2023-03-28T21:37:12.950Z,50.60
2023-03-28T21:39:40.113Z,50.70
2023-03-28T21:42:07.626Z,50.94
2023-03-28T21:44:34.588Z,51.26
2023-03-28T21:47:01.732Z,51.34
2023-03-28T21:49:30.713Z,51.31
2023-03-28T21:51:57.730Z,51.23
2023-03-28T21:54:25.618Z,51.47
2023-03-28T21:56:52.612Z,51.67
2023-03-28T21:59:20.102Z,51.46
2023-03-28T22:01:47.236Z,51.35
2023-03-28T22:04:14.695Z,51.63
2023-03-28T22:06:41.717Z,51.73
2023-03-28T22:09:08.653Z,51.57
2023-03-28T22:11:35.825Z,51.65
2023-03-28T22:14:02.990Z,52.07
2023-03-28T22:16:32.495Z,52.36
2023-03-28T22:19:00.946Z,52.11
2023-03-28T22:21:30.334Z,51.94
2023-03-28T22:23:58.973Z,52.54
2023-03-28T22:26:28.832Z,52.99
2023-03-28T22:28:57.730Z,53.14
2023-03-28T22:31:26.139Z,53.08
2023-03-28T22:33:54.563Z,53.67
2023-03-28T22:36:21.773Z,53.57
2023-03-28T22:38:49.396Z,54.14
2023-03-28T22:41:16.416Z,53.76
2023-03-28T22:43:43.512Z,53.99
2023-03-28T22:46:12.891Z,55.52
2023-03-28T22:48:39.945Z,54.21
2023-03-28T22:51:11.826Z,54.51
2023-03-28T22:53:39.930Z,54.38
2023-03-28T22:56:07.545Z,54.72
2023-03-28T22:58:34.563Z,54.26
2023-03-28T23:01:01.841Z,54.69
2023-03-28T23:03:28.956Z,54.67
2023-03-28T23:05:56.859Z,54.83
2023-03-28T23:08:23.932Z,54.57
2023-03-28T23:10:51.031Z,54.67
2023-03-28T23:13:18.017Z,54.52
2023-03-28T23:15:45.032Z,54.76
2023-03-28T23:18:12.166Z,54.84
2023-03-28T23:20:39.777Z,55.12
2023-03-28T23:23:06.994Z,54.70
2023-03-28T23:25:34.534Z,54.99
2023-03-28T23:28:01.813Z,54.99
2023-03-28T23:30:28.775Z,54.88
2023-03-28T23:32:56.076Z,54.61
2023-03-28T23:35:22.988Z,54.84
2023-03-28T23:37:53.320Z,55.13
2023-03-28T23:40:20.719Z,54.60
2023-03-28T23:42:47.750Z,54.50
2023-03-28T23:45:15.828Z,54.49
2023-03-28T23:47:44.050Z,54.92
2023-03-28T23:50:11.577Z,55.18
2023-03-28T23:52:38.534Z,54.84
2023-03-28T23:55:07.970Z,54.83
2023-03-28T23:57:34.854Z,54.44
